Time;durP1;ratioP1;P1;durP2;ratioP2;P2;SDS_P1;SDS_P2;PMS_P1;PMS_P2;Temp;Humidity;BMP_temperature;BMP_pressure;BME280_temperature;BME280_humidity;BME280_pressure;Samples;Min_cycle;Max_cycle;Signal;HPM_P1;HPM_P2
2022/05/25 00:02:22;;;;;;;3.85;2.60;;;;;;;6.98;83.18;99310.45;1677466;83;20963;-67
2022/05/25 00:04:51;;;;;;;3.70;2.70;;;;;;;6.97;84.10;99315.22;1682277;83;20983;-67
2022/05/25 00:07:18;;;;;;;4.45;2.85;;;;;;;6.97;85.07;99317.36;1687134;83;21500;-68
2022/05/25 00:09:47;;;;;;;4.17;2.90;;;;;;;6.97;85.38;99315.22;1677731;84;21082;-68
2022/05/25 00:12:13;;;;;;;4.00;2.90;;;;;;;6.95;85.32;99315.26;1685870;84;21066;-67
2022/05/25 00:14:41;;;;;;;4.53;2.52;;;;;;;6.95;85.97;99321.72;1689198;84;21118;-67
2022/05/25 00:17:08;;;;;;;4.78;3.25;;;;;;;6.95;86.55;99313.97;1671086;84;21082;-68
2022/05/25 00:22:20;;;;;;;4.00;2.95;;;;;;;6.95;87.10;99315.26;1672766;84;21050;-67
2022/05/25 00:24:46;;;;;;;5.50;2.83;;;;;;;6.94;87.30;99313.56;1660480;84;21048;-67
2022/05/25 00:27:13;;;;;;;5.33;2.98;;;;;;;6.93;87.24;99314.45;1667234;84;21471;-67
2022/05/25 00:29:40;;;;;;;3.40;2.90;;;;;;;6.90;87.26;99312.80;1686848;84;20963;-67
2022/05/25 00:32:07;;;;;;;5.03;2.70;;;;;;;6.88;87.32;99321.04;1664161;83;22168;-68
2022/05/25 00:34:34;;;;;;;3.45;2.62;;;;;;;6.86;87.53;99320.23;1679706;84;21431;-68
2022/05/25 00:37:01;;;;;;;4.30;2.85;;;;;;;6.84;87.29;99317.28;1687737;84;21015;-67
2022/05/25 00:39:29;;;;;;;3.62;2.67;;;;;;;6.82;86.92;99317.77;1684921;83;21042;-67
2022/05/25 00:41:56;;;;;;;3.60;2.98;;;;;;;6.80;86.93;99316.97;1689130;83;21233;-67
2022/05/25 00:44:23;;;;;;;4.08;3.08;;;;;;;6.76;86.65;99323.98;1690349;83;21133;-67
2022/05/25 00:46:51;;;;;;;5.08;2.90;;;;;;;6.70;86.38;99324.16;1684417;83;21087;-68
2022/05/25 00:49:28;;;;;;;3.42;2.75;;;;;;;6.67;86.10;99321.65;1685920;83;21070;-68
2022/05/25 00:52:06;;;;;;;4.53;2.70;;;;;;;6.62;85.76;99327.83;1681786;83;21043;-67
2022/05/25 00:54:40;;;;;;;2.98;2.42;;;;;;;6.56;84.61;99325.84;1686034;83;21063;-67
2022/05/25 00:57:17;;;;;;;4.97;3.22;;;;;;;6.50;84.24;99324.70;1681277;84;21003;-68
2022/05/25 01:00:07;;;;;;;3.75;2.77;;;;;;;6.45;84.24;99332.17;1685853;83;21168;-68
2022/05/25 01:02:38;;;;;;;4.53;3.30;;;;;;;6.40;84.27;99334.02;1684537;83;21189;-67
2022/05/25 01:05:06;;;;;;;4.20;2.87;;;;;;;6.37;83.75;99341.88;1691133;84;21010;-68
2022/05/25 01:07:48;;;;;;;5.90;2.85;;;;;;;6.34;83.59;99340.66;1676284;84;20992;-68
2022/05/25 01:11:09;;;;;;;3.98;3.58;;;;;;;6.28;83.51;99340.37;1685275;83;21188;-68
2022/05/25 01:14:32;;;;;;;5.35;2.67;;;;;;;6.23;83.45;99334.47;1680624;84;20909;-68
2022/05/25 01:17:22;;;;;;;3.62;2.70;;;;;;;6.17;84.23;99339.81;1697898;84;21224;-67
2022/05/25 01:20:06;;;;;;;9.60;3.12;;;;;;;6.11;83.99;99338.23;1683180;83;21075;-67
2022/05/25 01:22:56;;;;;;;6.78;2.55;;;;;;;6.07;84.02;99333.17;1690195;83;21495;-68
2022/05/25 01:25:49;;;;;;;5.47;3.40;;;;;;;6.02;84.05;99333.28;1686954;84;21945;-68
2022/05/25 01:28:53;;;;;;;4.83;2.55;;;;;;;5.99;83.99;99334.67;1673321;84;21133;-68
2022/05/25 01:31:24;;;;;;;6.17;2.90;;;;;;;5.95;83.82;99338.22;1688628;83;21059;-67
2022/05/25 01:34:04;;;;;;;3.12;2.40;;;;;;;5.88;83.84;99334.92;1675315;83;20970;-67
2022/05/25 01:36:42;;;;;;;6.28;2.92;;;;;;;5.84;83.70;99338.42;1678159;84;21051;-68
2022/05/25 01:39:14;;;;;;;3.55;2.35;;;;;;;5.79;84.52;99337.72;1674822;83;22031;-68
2022/05/25 01:42:15;;;;;;;5.50;2.50;;;;;;;5.77;84.62;99339.92;1685076;84;21079;-67
2022/05/25 01:44:48;;;;;;;5.17;3.70;;;;;;;5.76;85.06;99344.67;1699330;83;20963;-67
2022/05/25 01:47:14;;;;;;;5.62;3.05;;;;;;;5.72;85.72;99337.89;1695751;84;21079;-67
2022/05/25 01:50:08;;;;;;;4.65;3.30;;;;;;;5.70;86.88;99338.36;1682097;84;21011;-67
2022/05/25 01:52:40;;;;;;;5.33;2.90;;;;;;;5.71;88.23;99341.35;1688330;83;21550;-68
2022/05/25 01:55:13;;;;;;;2.40;2.17;;;;;;;5.70;89.41;99340.50;1701057;84;20964;-68
2022/05/25 01:57:44;;;;;;;3.67;2.60;;;;;;;5.73;90.03;99339.14;1686779;84;21062;-67
2022/05/25 02:00:40;;;;;;;4.33;2.67;;;;;;;5.73;90.85;99339.14;1669421;84;21499;-67
2022/05/25 02:06:11;;;;;;;4.87;2.65;;;;;;;5.79;90.18;99344.61;1673078;84;21180;-67
2022/05/25 02:08:44;;;;;;;2.55;2.35;;;;;;;5.78;89.40;99346.78;1699835;84;21012;-67
2022/05/25 02:11:26;;;;;;;5.08;2.70;;;;;;;5.77;88.97;99349.80;1675517;83;21059;-67
2022/05/25 02:14:09;;;;;;;2.67;2.45;;;;;;;5.77;89.21;99352.39;1685300;83;21031;-67
2022/05/25 02:16:45;;;;;;;;;;;;;;;5.81;89.93;99347.97;1688917;84;21080;-68
2022/05/25 02:19:45;;;;;;;6.17;3.15;;;;;;;5.87;90.84;99355.13;1675051;83;21077;-68
2022/05/25 02:22:19;;;;;;;6.10;2.77;;;;;;;6.01;91.27;99360.42;1697307;84;20968;-67
2022/05/25 02:24:54;;;;;;;3.60;2.45;;;;;;;6.25;90.42;99363.69;1691202;83;20988;-67
2022/05/25 02:27:27;;;;;;;7.67;2.62;;;;;;;6.53;89.52;99363.83;1680709;84;21610;-67
2022/05/25 02:29:58;;;;;;;;;;;;;;;6.86;89.07;99364.18;1670300;83;21074;-69
2022/05/25 02:32:33;;;;;;;5.90;2.62;;;;;;;7.24;88.55;99355.31;1690421;83;21179;-67
2022/05/25 02:35:01;;;;;;;4.85;2.35;;;;;;;7.71;87.93;99362.08;1710284;82;21062;-68
2022/05/25 02:37:30;;;;;;;11.30;3.52;;;;;;;8.21;85.00;99355.69;1687693;83;21125;-68
2022/05/25 02:40:00;;;;;;;4.12;2.60;;;;;;;8.73;82.32;99355.23;1677002;84;21105;-69
2022/05/25 02:42:27;;;;;;;4.67;2.42;;;;;;;9.26;79.51;99354.54;1675889;84;21558;-68
2022/05/25 02:44:53;;;;;;;4.78;2.58;;;;;;;9.76;76.82;99353.04;1692957;84;21748;-68
2022/05/25 02:47:21;;;;;;;6.78;2.72;;;;;;;10.30;74.21;99352.55;1658192;84;20983;-68
2022/05/25 02:49:48;;;;;;;4.17;2.92;;;;;;;10.81;71.08;99355.95;1691331;84;21083;-68
2022/05/25 02:52:15;;;;;;;3.70;2.77;;;;;;;11.30;68.41;99358.50;1673744;83;21427;-68
2022/05/25 02:54:42;;;;;;;5.67;2.87;;;;;;;11.73;65.96;99353.87;1676619;83;21054;-68
2022/05/25 02:57:09;;;;;;;5.37;3.20;;;;;;;12.09;64.04;99352.57;1696135;84;21243;-68
2022/05/25 02:59:36;;;;;;;4.80;3.02;;;;;;;12.53;62.21;99354.25;1677588;84;21093;-68
2022/05/25 03:02:08;;;;;;;4.65;3.12;;;;;;;12.92;60.36;99359.17;1686411;83;21087;-68
2022/05/25 03:04:34;;;;;;;8.25;4.37;;;;;;;13.33;59.11;99353.53;1678245;83;21018;-68
2022/05/25 03:07:01;;;;;;;10.68;3.35;;;;;;;13.74;57.66;99348.16;1675200;83;21066;-68
2022/05/25 03:09:28;;;;;;;9.93;3.30;;;;;;;14.20;56.26;99355.97;1677240;84;21094;-68
2022/05/25 03:11:54;;;;;;;6.03;3.10;;;;;;;14.64;54.90;99353.39;1686595;83;21427;-68
2022/05/25 03:14:21;;;;;;;6.58;3.22;;;;;;;15.09;53.55;99348.45;1676191;84;21460;-68
2022/05/25 03:16:48;;;;;;;3.80;3.02;;;;;;;15.55;51.98;99356.53;1695790;83;20998;-68
2022/05/25 03:19:14;;;;;;;3.22;2.83;;;;;;;15.94;50.60;99357.94;1694344;83;21181;-68
2022/05/25 03:21:41;;;;;;;5.42;3.20;;;;;;;16.77;48.42;99353.27;1693786;83;21248;-68
2022/05/25 03:24:09;;;;;;;5.70;3.30;;;;;;;16.77;48.42;99353.27;1679113;84;21090;-68
2022/05/25 03:26:37;;;;;;;4.28;2.80;;;;;;;17.16;47.42;99350.97;1676195;84;21129;-68
2022/05/25 03:29:04;;;;;;;3.85;3.00;;;;;;;17.54;46.18;99354.82;1664066;84;21102;-68
2022/05/25 03:31:32;;;;;;;5.67;3.22;;;;;;;17.93;45.02;99355.54;1674196;84;20947;-68
2022/05/25 03:34:00;;;;;;;9.10;3.72;;;;;;;18.31;44.10;99358.80;1688288;84;21154;-68
2022/05/25 03:36:26;;;;;;;10.05;3.80;;;;;;;18.66;43.24;99357.47;1681838;84;21053;-68
2022/05/25 03:38:53;;;;;;;6.97;3.47;;;;;;;19.00;42.33;99350.91;1669195;84;21006;-69
2022/05/25 03:41:21;;;;;;;4.20;3.08;;;;;;;19.34;41.77;99349.11;1698736;84;21476;-68
2022/05/25 03:43:48;;;;;;;9.20;3.62;;;;;;;19.70;40.70;99356.75;1690977;84;21082;-68
2022/05/25 03:46:15;;;;;;;5.75;3.10;;;;;;;19.94;40.20;99360.52;1658680;84;21538;-69
2022/05/25 03:48:41;;;;;;;6.53;3.17;;;;;;;20.19;39.68;99360.16;1683265;84;21066;-69
2022/05/25 03:51:10;;;;;;;5.92;3.27;;;;;;;20.51;38.91;99355.36;1690798;83;21075;-68
2022/05/25 03:53:38;;;;;;;3.95;3.33;;;;;;;20.86;38.46;99353.67;1701624;84;21074;-69
2022/05/25 03:56:05;;;;;;;5.45;2.85;;;;;;;21.21;38.13;99357.27;1666825;85;20998;-68
2022/05/25 03:58:32;;;;;;;10.20;3.50;;;;;;;21.54;37.60;99358.78;1686643;83;21148;-69
2022/05/25 04:00:58;;;;;;;4.62;2.90;;;;;;;21.84;37.08;99353.87;1670330;84;20967;-68
2022/05/25 04:03:25;;;;;;;4.10;2.87;;;;;;;22.12;36.89;99361.05;1678063;84;20984;-69
2022/05/25 04:05:53;;;;;;;6.12;3.02;;;;;;;22.41;36.46;99364.15;1680555;84;20959;-69
2022/05/25 04:08:20;;;;;;;5.58;3.20;;;;;;;22.66;36.05;99366.21;1691819;83;21061;-68
2022/05/25 04:10:48;;;;;;;14.58;3.77;;;;;;;22.91;35.80;99370.94;1682885;83;20964;-69
2022/05/25 04:13:16;;;;;;;11.05;4.28;;;;;;;23.09;35.06;99374.98;1674978;84;21078;-69
2022/05/25 04:15:43;;;;;;;7.87;4.12;;;;;;;23.27;34.31;99379.87;1651279;84;21626;-70
2022/05/25 04:18:10;;;;;;;7.67;3.62;;;;;;;23.48;33.84;99376.14;1687652;84;21479;-69
2022/05/25 04:20:36;;;;;;;7.62;4.50;;;;;;;23.69;33.66;99374.94;1692497;84;21019;-69
2022/05/25 04:23:03;;;;;;;23.95;6.25;;;;;;;23.92;33.47;99381.98;1678541;83;21140;-69
2022/05/25 04:25:32;;;;;;;8.90;5.95;;;;;;;24.14;33.25;99379.38;1658517;84;21008;-69
2022/05/25 04:27:59;;;;;;;5.22;3.33;;;;;;;24.41;33.01;99382.95;1676871;83;21050;-70
2022/05/25 04:30:29;;;;;;;4.53;3.22;;;;;;;24.68;32.68;99382.84;1690224;84;20980;-69
2022/05/25 04:32:55;;;;;;;4.42;3.42;;;;;;;24.92;31.99;99379.02;1675969;84;21538;-69
2022/05/25 04:35:23;;;;;;;3.65;3.33;;;;;;;25.13;31.77;99380.48;1695949;83;21766;-69
2022/05/25 04:37:55;;;;;;;7.95;3.77;;;;;;;25.28;31.47;99385.55;1686896;83;21070;-69
2022/05/25 04:40:26;;;;;;;10.72;3.37;;;;;;;25.44;31.28;99383.45;1692883;84;20979;-69
2022/05/25 04:42:55;;;;;;;5.97;3.77;;;;;;;25.60;30.89;99380.34;1692928;84;21661;-69
2022/05/25 04:45:22;;;;;;;9.38;3.72;;;;;;;25.71;31.05;99387.25;1687054;83;20944;-69
2022/05/25 04:47:49;;;;;;;5.37;3.37;;;;;;;25.89;30.76;99393.79;1675662;83;21507;-69
2022/05/25 04:50:19;;;;;;;7.53;3.15;;;;;;;25.99;30.80;99389.97;1693448;83;21224;-68
2022/05/25 04:52:46;;;;;;;4.62;3.47;;;;;;;26.07;30.65;99393.16;1677402;84;21094;-68
2022/05/25 04:57:19;;;;;;;12.65;3.65;;;;;;;26.20;30.24;99393.50;1683398;84;21558;-68
2022/05/25 04:57:42;;;;;;;10.00;3.77;;;;;;;26.30;29.93;99394.72;1676744;84;21523;-68
2022/05/25 05:00:10;;;;;;;15.40;5.97;;;;;;;26.35;29.98;99390.56;1679894;84;21161;-67
2022/05/25 05:02:37;;;;;;;10.70;4.28;;;;;;;26.48;30.05;99390.55;1678445;84;20959;-68
2022/05/25 05:05:06;;;;;;;10.48;3.85;;;;;;;26.63;29.89;99395.04;1684383;83;21023;-69
2022/05/25 05:07:34;;;;;;;19.70;5.60;;;;;;;26.83;29.21;99396.85;1691190;84;20963;-69
2022/05/25 05:10:01;;;;;;;9.55;4.60;;;;;;;27.04;29.27;99399.84;1695139;84;20951;-69
2022/05/25 05:12:30;;;;;;;8.55;3.95;;;;;;;27.26;29.14;99397.45;1692120;82;21488;-68
2022/05/25 05:14:57;;;;;;;7.28;3.45;;;;;;;27.38;29.08;99392.89;1725088;81;21187;-68
2022/05/25 05:17:24;;;;;;;7.75;3.05;;;;;;;27.50;28.48;99395.20;1706493;81;21154;-70
2022/05/25 05:19:56;;;;;;;15.05;3.52;;;;;;;27.64;28.22;99395.83;1717150;81;21069;-71
2022/05/25 05:22:24;;;;;;;21.12;5.50;;;;;;;27.86;27.89;99398.22;1715901;81;21006;-69
2022/05/25 05:24:51;;;;;;;6.47;2.58;;;;;;;28.05;26.59;99395.92;1718340;81;21229;-69
2022/05/25 05:27:17;;;;;;;16.45;3.42;;;;;;;28.20;25.99;99397.86;1711658;82;21619;-70
2022/05/25 05:29:45;;;;;;;7.85;2.70;;;;;;;28.39;25.37;99397.38;1743856;81;21090;-71
2022/05/25 05:32:12;;;;;;;9.30;3.22;;;;;;;28.60;24.85;99406.07;1737249;81;21069;-71
2022/05/25 05:34:41;;;;;;;10.45;3.10;;;;;;;28.75;25.43;99401.09;1727917;82;21170;-74
2022/05/25 05:37:17;;;;;;;4.25;2.02;;;;;;;28.57;25.69;99397.09;1737572;80;21716;-73
2022/05/25 05:39:47;;;;;;;6.67;2.08;;;;;;;28.46;23.95;99398.33;1710186;81;21053;-74
2022/05/25 05:42:17;;;;;;;4.97;1.92;;;;;;;28.45;23.36;99399.34;1712660;81;21639;-73
2022/05/25 05:44:57;;;;;;;4.47;2.08;;;;;;;28.46;23.34;99399.67;1716142;81;21200;-72
2022/05/25 05:47:29;;;;;;;7.58;2.47;;;;;;;28.50;23.24;99394.80;1703902;82;21459;-73
2022/05/25 05:49:56;;;;;;;9.60;2.30;;;;;;;28.43;23.13;99397.34;1715344;82;21317;-73
2022/05/25 05:52:25;;;;;;;5.40;1.98;;;;;;;28.25;22.65;99401.67;1704939;80;21159;-74
2022/05/25 05:54:52;;;;;;;6.15;3.67;;;;;;;28.02;22.65;99399.45;1664818;83;21430;-73
2022/05/25 05:57:19;;;;;;;4.15;1.92;;;;;;;27.83;22.32;99395.39;1673292;83;21077;-73
2022/05/25 05:59:45;;;;;;;4.42;3.05;;;;;;;27.62;21.90;99398.67;1652473;84;21144;-73
2022/05/25 06:02:11;;;;;;;6.10;2.60;;;;;;;27.39;22.00;99399.91;1694684;83;21206;-72
2022/05/25 06:04:38;;;;;;;1.95;1.42;;;;;;;27.18;22.28;99402.30;1700124;82;21073;-74
2022/05/25 06:07:05;;;;;;;6.17;1.80;;;;;;;26.99;22.58;99399.52;1700144;83;21506;-73
2022/05/25 06:09:32;;;;;;;6.80;1.60;;;;;;;26.84;22.63;99401.19;1718689;81;21071;-72
2022/05/25 06:11:59;;;;;;;7.40;2.40;;;;;;;26.73;22.66;99398.88;1735445;80;21064;-74
2022/05/25 06:14:25;;;;;;;1.85;1.67;;;;;;;26.65;22.53;99391.70;1726893;81;21266;-74
2022/05/25 06:19:37;;;;;;;10.05;2.75;;;;;;;26.34;22.29;99394.23;1714519;81;21077;-74
2022/05/25 06:22:08;;;;;;;6.75;1.92;;;;;;;26.23;22.32;99403.00;1698822;80;21043;-73
2022/05/25 06:24:43;;;;;;;5.33;1.97;;;;;;;26.10;22.13;99396.83;1696948;82;21648;-74
2022/05/25 06:27:11;;;;;;;3.20;1.90;;;;;;;25.93;22.16;99399.14;1680136;83;22312;-74
2022/05/25 06:29:43;;;;;;;5.45;1.80;;;;;;;25.73;22.31;99397.25;1698310;82;21042;-73
2022/05/25 06:32:11;;;;;;;7.75;2.25;;;;;;;25.51;22.31;99400.47;1702863;82;21479;-76
2022/05/25 06:34:39;;;;;;;4.70;2.00;;;;;;;25.28;22.45;99394.38;1696077;81;21128;-73
2022/05/25 06:37:05;;;;;;;6.22;1.98;;;;;;;25.10;22.17;99402.93;1669038;82;21078;-72
2022/05/25 06:39:37;;;;;;;8.05;1.80;;;;;;;24.82;22.39;99408.86;1677144;81;21511;-72
2022/05/25 06:42:05;;;;;;;4.58;1.70;;;;;;;24.58;22.58;99404.72;1716564;80;21038;-73
2022/05/25 06:44:31;;;;;;;4.62;1.67;;;;;;;24.31;23.30;99401.16;1721580;81;21122;-75
2022/05/25 06:46:58;;;;;;;3.58;1.50;;;;;;;24.12;22.97;99401.77;1693933;81;21010;-74
2022/05/25 06:49:25;;;;;;;4.90;1.95;;;;;;;23.92;23.14;99397.92;1695746;82;21049;-73
2022/05/25 06:51:53;;;;;;;5.37;1.62;;;;;;;23.65;22.74;99393.47;1698560;83;21182;-76
2022/05/25 06:54:20;;;;;;;8.73;4.15;;;;;;;23.43;23.52;99403.12;1686991;82;21064;-76
2022/05/25 06:56:47;;;;;;;2.35;2.10;;;;;;;23.25;23.45;99393.77;1702733;82;21116;-75
2022/05/25 06:59:14;;;;;;;2.95;1.87;;;;;;;23.14;23.50;99397.95;1726169;81;21187;-75
2022/05/25 07:01:41;;;;;;;2.87;1.47;;;;;;;23.04;23.67;99395.80;1720126;81;21109;-77
2022/05/25 07:04:09;;;;;;;5.00;1.75;;;;;;;22.94;23.46;99392.36;1729084;80;21316;-75
2022/05/25 07:06:37;;;;;;;4.50;1.50;;;;;;;22.81;23.73;99391.81;1705410;81;21184;-77
2022/05/25 07:09:05;;;;;;;2.10;1.60;;;;;;;22.76;23.79;99399.34;1710759;81;21054;-76
2022/05/25 07:11:33;;;;;;;5.20;1.90;;;;;;;22.74;23.85;99392.86;1722160;82;20979;-77
2022/05/25 07:14:01;;;;;;;5.40;2.05;;;;;;;22.73;23.78;99395.16;1709442;81;21092;-77
2022/05/25 07:16:28;;;;;;;3.60;1.57;;;;;;;22.71;23.88;99395.80;1708785;82;21449;-74
2022/05/25 07:18:56;;;;;;;1.60;1.50;;;;;;;22.72;23.53;99390.84;1722825;81;21105;-75
2022/05/25 07:21:27;;;;;;;7.53;1.82;;;;;;;22.74;23.95;99389.38;1699258;81;21075;-74
2022/05/25 07:23:56;;;;;;;7.42;2.80;;;;;;;22.79;24.22;99393.77;1706376;81;21057;-74
2022/05/25 07:26:23;;;;;;;3.35;1.57;;;;;;;22.84;24.42;99391.53;1719455;81;21092;-74
2022/05/25 07:28:53;;;;;;;3.80;1.90;;;;;;;22.89;23.30;99393.27;1685322;83;21770;-73
2022/05/25 07:31:40;;;;;;;10.63;2.10;;;;;;;22.92;23.71;99398.30;1682776;83;21042;-74
2022/05/25 07:34:22;;;;;;;3.65;1.65;;;;;;;23.03;24.14;99403.41;1731446;81;21074;-73
2022/05/25 07:36:53;;;;;;;2.70;1.82;;;;;;;23.20;23.58;99402.66;1696625;82;21113;-72
2022/05/25 07:39:21;;;;;;;3.33;2.05;;;;;;;23.36;23.63;99395.42;1707695;81;21002;-74
2022/05/25 07:41:51;;;;;;;7.12;2.10;;;;;;;23.51;23.46;99394.43;1712599;83;22106;-74
2022/05/25 07:44:22;;;;;;;2.17;1.82;;;;;;;23.64;23.21;99387.81;1742047;81;20968;-74
2022/05/25 07:46:49;;;;;;;3.20;1.90;;;;;;;23.78;22.89;99385.66;1714658;81;21043;-73
2022/05/25 07:49:17;;;;;;;5.25;2.02;;;;;;;23.90;22.31;99391.92;1733440;80;21082;-73
2022/05/25 07:51:45;;;;;;;4.75;1.70;;;;;;;24.02;23.11;99390.70;1705563;81;21294;-73
2022/05/25 07:54:12;;;;;;;2.98;1.70;;;;;;;24.15;22.09;99385.53;1695654;82;21144;-74
2022/05/25 07:56:40;;;;;;;5.37;1.72;;;;;;;24.19;22.46;99389.03;1702479;81;21307;-73
2022/05/25 07:59:10;;;;;;;2.87;1.57;;;;;;;24.24;22.40;99386.80;1678140;81;21116;-72
2022/05/25 08:07:25;;;;;;;9.50;2.87;;;;;;;24.09;22.00;99386.97;1712742;81;21130;-71
2022/05/25 08:09:56;;;;;;;3.50;1.60;;;;;;;24.02;22.60;99389.38;1709771;81;21902;-73
2022/05/25 08:12:24;;;;;;;3.62;1.50;;;;;;;24.04;22.16;99386.08;1727912;81;21530;-76
2022/05/25 08:14:51;;;;;;;3.30;1.52;;;;;;;24.08;22.05;99388.44;1702646;82;21055;-77
2022/05/25 08:17:20;;;;;;;4.55;2.10;;;;;;;24.09;22.23;99385.63;1708334;81;21037;-79
2022/05/25 08:19:46;;;;;;;8.95;1.72;;;;;;;24.09;22.17;99376.33;1720125;81;22292;-74
2022/05/25 08:22:13;;;;;;;5.25;2.40;;;;;;;24.13;22.52;99379.53;1708860;81;21305;-74
2022/05/25 08:24:40;;;;;;;4.05;1.52;;;;;;;24.13;21.99;99377.70;1696665;81;21137;-74
2022/05/25 08:27:08;;;;;;;3.77;1.82;;;;;;;24.11;21.82;99382.83;1717215;81;21062;-74
2022/05/25 08:29:35;;;;;;;3.75;2.22;;;;;;;24.07;22.32;99386.77;1705410;81;21014;-75
2022/05/25 08:32:03;;;;;;;2.67;1.62;;;;;;;24.09;22.65;99384.80;1703074;81;21186;-73
2022/05/25 08:34:31;;;;;;;2.85;1.80;;;;;;;24.10;22.79;99385.98;1708817;81;21044;-76
2022/05/25 08:36:58;;;;;;;5.20;2.50;;;;;;;24.12;22.32;99375.20;1691226;82;21546;-74
2022/05/25 08:39:24;;;;;;;4.37;2.30;;;;;;;24.14;22.70;99378.55;1701557;81;21000;-74
2022/05/25 08:41:53;;;;;;;2.58;1.85;;;;;;;24.24;22.70;99378.83;1715767;81;21664;-77
2022/05/25 08:44:23;;;;;;;2.37;1.65;;;;;;;24.33;22.37;99380.58;1711853;82;21505;-75
2022/05/25 08:46:58;;;;;;;4.97;1.62;;;;;;;24.35;22.30;99374.62;1723772;82;21033;-74
2022/05/25 08:49:25;;;;;;;3.83;1.47;;;;;;;24.41;22.13;99377.13;1709111;82;21113;-74
2022/05/25 08:51:55;;;;;;;5.70;2.08;;;;;;;24.47;22.21;99381.84;1711644;81;21067;-75
2022/05/25 08:54:23;;;;;;;4.42;1.70;;;;;;;24.52;22.16;99380.06;1734169;80;21098;-74
2022/05/25 08:56:56;;;;;;;2.40;1.60;;;;;;;24.53;22.43;99378.58;1724978;79;21109;-75
2022/05/25 08:59:49;;;;;;;3.58;1.52;;;;;;;24.60;21.93;99375.62;1686672;81;21129;-75
2022/05/25 09:02:45;;;;;;;3.87;1.95;;;;;;;24.62;21.80;99376.80;1706558;80;21106;-76
2022/05/25 09:05:23;;;;;;;2.92;1.50;;;;;;;24.60;21.29;99374.78;1727079;79;21049;-74
2022/05/25 09:08:01;;;;;;;3.58;1.45;;;;;;;24.52;21.75;99372.08;1717159;81;21058;-75
2022/05/25 09:10:32;;;;;;;8.55;1.90;;;;;;;24.53;21.73;99369.27;1670390;82;21277;-76
2022/05/25 09:13:09;;;;;;;4.53;1.37;;;;;;;24.52;21.45;99372.08;1684389;82;21564;-75
2022/05/25 09:16:15;;;;;;;3.17;1.57;;;;;;;24.48;21.24;99376.87;1729350;81;21522;-74
2022/05/25 09:18:11;;;;;;;4.10;1.27;;;;;;;24.38;20.55;99362.81;1682168;82;21071;-74
2022/05/25 09:20:44;;;;;;;3.37;1.67;;;;;;;24.29;21.04;99361.94;1672146;83;22668;-74
2022/05/25 09:23:12;;;;;;;5.05;1.47;;;;;;;24.25;20.98;99353.92;1680119;83;21250;-74
2022/05/25 09:25:41;;;;;;;5.12;1.42;;;;;;;24.23;20.98;99351.88;1686707;82;21098;-74
2022/05/25 09:28:19;;;;;;;7.70;2.08;;;;;;;24.29;21.67;99349.14;1724616;82;21018;-75
2022/05/25 09:30:50;;;;;;;3.67;1.50;;;;;;;24.36;22.49;99359.50;1704915;82;21450;-77
2022/05/25 09:33:34;;;;;;;5.10;1.52;;;;;;;24.41;21.97;99362.52;1699646;82;21129;-78
2022/05/25 09:36:15;;;;;;;3.70;1.52;;;;;;;24.40;21.95;99347.55;1702673;82;21786;-75
2022/05/25 09:38:48;;;;;;;2.27;1.57;;;;;;;24.44;21.67;99351.58;1712724;82;21030;-71
2022/05/25 09:41:21;;;;;;;2.75;1.30;;;;;;;24.51;21.46;99345.99;1695489;83;21614;-75
2022/05/25 09:43:55;;;;;;;2.30;1.30;;;;;;;24.56;21.30;99345.03;1718002;82;20995;-76
2022/05/25 09:46:32;;;;;;;;;;;;;;;24.68;22.05;99342.94;1708511;82;21057;-80
2022/05/25 09:49:05;;;;;;;3.35;1.32;;;;;;;24.95;21.66;99336.16;1688433;83;21799;-71
2022/05/25 09:51:37;;;;;;;5.72;1.55;;;;;;;25.26;21.48;99330.30;1728905;82;21438;-79
2022/05/25 09:54:30;;;;;;;5.10;1.50;;;;;;;25.56;21.41;99327.59;1735090;81;21051;-78
2022/05/25 09:57:30;;;;;;;4.17;1.60;;;;;;;25.73;21.11;99327.48;1719970;81;21043;-78
2022/05/25 10:00:02;;;;;;;3.98;1.82;;;;;;;25.92;21.37;99330.84;1709073;82;21070;-78
2022/05/25 10:02:42;;;;;;;3.40;1.52;;;;;;;26.11;21.43;99337.20;1728543;81;21896;-79
2022/05/25 10:05:27;;;;;;;2.20;1.20;;;;;;;26.30;20.87;99325.39;1717765;82;21061;-80
2022/05/25 10:08:03;;;;;;;3.08;1.40;;;;;;;26.39;19.89;99324.38;1719364;82;21053;-78
2022/05/25 10:10:47;;;;;;;2.17;1.50;;;;;;;26.32;20.32;99321.56;1716111;81;21030;-79
2022/05/25 10:13:17;;;;;;;4.80;2.37;;;;;;;26.41;19.98;99316.54;1686366;82;21083;-80
2022/05/25 10:15:47;;;;;;;3.75;1.80;;;;;;;26.51;19.93;99323.05;1708082;81;21199;-79
2022/05/25 10:18:14;;;;;;;2.92;1.45;;;;;;;26.61;20.04;99324.18;1680796;82;21086;-80
2022/05/25 10:20:47;;;;;;;3.33;1.35;;;;;;;26.71;20.21;99319.01;1720473;81;21171;-81
2022/05/25 10:23:23;;;;;;;4.80;1.45;;;;;;;26.85;19.74;99319.30;1751966;81;21016;-79
2022/05/25 10:25:54;;;;;;;5.78;1.75;;;;;;;26.87;19.77;99322.63;1752483;80;21109;-79
2022/05/25 10:28:31;;;;;;;2.40;1.42;;;;;;;26.94;19.52;99323.63;1749110;81;21247;-80
2022/05/25 10:37:11;;;;;;;6.35;1.65;;;;;;;26.62;19.29;99312.51;1746850;80;21287;-79
2022/05/25 10:39:41;;;;;;;3.15;1.60;;;;;;;26.63;19.92;99308.34;1743824;81;21021;-78
2022/05/25 10:42:22;;;;;;;3.92;1.60;;;;;;;26.81;19.47;99300.63;1746582;81;21315;-80
2022/05/25 10:45:20;;;;;;;2.23;1.57;;;;;;;26.96;19.65;99303.80;1752636;80;21095;-87
2022/05/25 10:47:55;;;;;;;4.42;1.50;;;;;;;27.13;19.52;99301.89;1750241;81;21074;-79
2022/05/25 10:50:59;;;;;;;3.80;1.75;;;;;;;27.28;19.18;99295.31;1740084;81;21018;-79
2022/05/25 10:53:44;;;;;;;9.43;2.80;;;;;;;27.32;18.90;99296.12;1748198;81;21578;-81
2022/05/25 10:56:25;;;;;;;2.70;1.62;;;;;;;27.42;18.88;99295.89;1726191;81;21245;-78
2022/05/25 10:59:15;;;;;;;2.45;1.80;;;;;;;27.54;18.63;99297.18;1746636;81;21021;-78
2022/05/25 11:02:11;;;;;;;4.25;1.30;;;;;;;27.75;18.85;99300.59;1740965;81;21009;-79
2022/05/25 11:05:11;;;;;;;3.42;1.70;;;;;;;28.06;18.50;99293.31;1714620;81;21050;-79
2022/05/25 11:07:40;;;;;;;8.18;2.10;;;;;;;28.30;18.45;99291.48;1718970;80;21058;-80
2022/05/25 11:10:39;;;;;;;5.42;1.70;;;;;;;28.40;18.27;99288.86;1706944;81;21142;-83
2022/05/25 11:13:39;;;;;;;2.58;1.17;;;;;;;28.38;17.76;99289.55;1717891;81;21126;-83
2022/05/25 11:16:41;;;;;;;6.75;1.75;;;;;;;28.21;17.93;99282.69;1716978;79;21029;-78
2022/05/25 11:19:41;;;;;;;4.72;1.65;;;;;;;28.12;18.26;99279.75;1716895;81;21021;-80
2022/05/25 11:22:38;;;;;;;2.40;1.50;;;;;;;27.99;18.19;99267.47;1706404;81;21022;-80
2022/05/25 11:25:25;;;;;;;3.95;1.70;;;;;;;27.70;18.19;99271.72;1634560;82;22184;-80
2022/05/25 11:28:22;;;;;;;6.45;2.20;;;;;;;27.41;18.74;99273.69;1637354;85;21143;-81
2022/05/25 11:31:06;;;;;;;3.08;1.65;;;;;;;27.24;19.34;99266.78;1677359;83;21077;-81
2022/05/25 11:33:51;;;;;;;3.02;1.60;;;;;;;27.07;19.59;99267.38;1669423;84;21054;-78
2022/05/25 11:37:01;;;;;;;5.87;1.60;;;;;;;26.95;19.68;99259.43;1656041;85;21143;-80
2022/05/25 11:39:33;;;;;;;3.45;1.95;;;;;;;26.89;19.75;99263.25;1638509;84;22169;-76
2022/05/25 11:42:12;;;;;;;6.33;2.30;;;;;;;26.89;20.35;99256.08;1644635;84;21342;-78
2022/05/25 11:44:56;;;;;;;6.62;1.85;;;;;;;26.92;20.41;99245.56;1661796;84;21061;-76
2022/05/25 11:48:00;;;;;;;7.03;1.85;;;;;;;26.96;20.08;99241.58;1665267;82;20998;-74
2022/05/25 11:51:03;;;;;;;1.62;1.52;;;;;;;26.98;20.20;99243.04;1670956;82;21654;-75
2022/05/25 11:54:07;;;;;;;4.55;1.67;;;;;;;26.96;20.12;99241.08;1655098;84;21278;-74
2022/05/25 11:56:45;;;;;;;5.10;1.80;;;;;;;26.81;20.12;99232.58;1646721;83;21491;-74
2022/05/25 11:59:39;;;;;;;6.05;1.70;;;;;;;26.70;20.62;99230.63;1686325;82;21034;-72
2022/05/25 12:02:44;;;;;;;7.97;1.90;;;;;;;26.81;20.65;99224.58;1714675;80;20984;-74
2022/05/25 12:05:25;;;;;;;2.00;1.30;;;;;;;26.99;20.35;99222.52;1740507;80;21110;-74
2022/05/25 12:08:10;;;;;;;3.25;1.55;;;;;;;27.13;20.39;99222.30;1715318;82;21420;-73
2022/05/25 12:10:42;;;;;;;5.75;1.47;;;;;;;27.23;20.44;99228.24;1700602;82;21632;-81
2022/05/25 12:13:34;;;;;;;2.17;1.70;;;;;;;27.34;20.01;99218.01;1696259;82;21110;-80
2022/05/25 12:16:18;;;;;;;4.85;1.62;;;;;;;27.46;19.83;99217.08;1717477;80;21058;-80
2022/05/25 12:19:00;;;;;;;2.55;1.30;;;;;;;27.47;20.15;99211.23;1710356;81;21045;-83
2022/05/25 12:21:40;;;;;;;1.72;1.52;;;;;;;27.39;20.16;99213.45;1686606;82;21858;-82
2022/05/25 12:24:15;;;;;;;5.33;2.15;;;;;;;27.23;20.48;99214.39;1685228;81;21538;-77
2022/05/25 12:26:41;;;;;;;4.42;1.65;;;;;;;27.19;20.49;99214.91;1733637;79;21038;-77